sensor_id;sensor_type;location;lat;lon;timestamp;pressure;altitude;pressure_sealevel;temperature;humidity
78459;BME280;67753;42.684;23.330;2023-02-26T00:00:30;93807.72;;;14.41;45.95
78459;BME280;67753;42.684;23.330;2023-02-26T00:02:31;93832.19;;;14.53;44.43
78459;BME280;67753;42.684;23.330;2023-02-26T00:04:33;93821.03;;;14.55;43.60
78459;BME280;67753;42.684;23.330;2023-02-26T00:06:37;93814.19;;;14.47;44.16
78459;BME280;67753;42.684;23.330;2023-02-26T00:08:51;93825.38;;;14.45;44.37
78459;BME280;67753;42.684;23.330;2023-02-26T00:10:53;93826.00;;;14.56;44.49
78459;BME280;67753;42.684;23.330;2023-02-26T00:12:57;93818.41;;;14.48;45.33
78459;BME280;67753;42.684;23.330;2023-02-26T00:15:02;93823.13;;;14.40;45.96
78459;BME280;67753;42.684;23.330;2023-02-26T00:17:24;93799.84;;;14.53;42.94
78459;BME280;67753;42.684;23.330;2023-02-26T00:19:27;93820.16;;;14.85;42.01
78459;BME280;67753;42.684;23.330;2023-02-26T00:21:31;93789.53;;;14.95;41.34
78459;BME280;67753;42.684;23.330;2023-02-26T00:23:33;93787.09;;;14.81;41.59
78459;BME280;67753;42.684;23.330;2023-02-26T00:25:36;93797.25;;;14.73;41.45
78459;BME280;67753;42.684;23.330;2023-02-26T00:27:38;93803.63;;;14.60;42.58
78459;BME280;67753;42.684;23.330;2023-02-26T00:29:41;93791.41;;;14.51;43.05
78459;BME280;67753;42.684;23.330;2023-02-26T00:31:46;93798.00;;;14.74;41.76
78459;BME280;67753;42.684;23.330;2023-02-26T00:33:49;93805.47;;;14.63;42.53
78459;BME280;67753;42.684;23.330;2023-02-26T00:35:54;93795.31;;;14.47;43.56
78459;BME280;67753;42.684;23.330;2023-02-26T00:38:00;93799.72;;;14.33;44.91
78459;BME280;67753;42.684;23.330;2023-02-26T00:40:13;93794.03;;;14.28;45.63
78459;BME280;67753;42.684;23.330;2023-02-26T00:42:17;93790.63;;;14.24;45.49
78459;BME280;67753;42.684;23.330;2023-02-26T00:44:20;93784.19;;;14.18;46.08
78459;BME280;67753;42.684;23.330;2023-02-26T00:46:33;93798.84;;;14.17;46.45
78459;BME280;67753;42.684;23.330;2023-02-26T00:48:47;93768.81;;;14.15;44.60
78459;BME280;67753;42.684;23.330;2023-02-26T00:50:58;93770.34;;;14.70;41.04
78459;BME280;67753;42.684;23.330;2023-02-26T00:53:03;93762.28;;;14.66;41.08
78459;BME280;67753;42.684;23.330;2023-02-26T00:55:09;93771.50;;;14.42;42.71
78459;BME280;67753;42.684;23.330;2023-02-26T00:57:11;93767.06;;;14.31;43.72
78459;BME280;67753;42.684;23.330;2023-02-26T00:59:13;93791.09;;;14.19;44.53
78459;BME280;67753;42.684;23.330;2023-02-26T01:01:15;93789.56;;;14.18;44.64
78459;BME280;67753;42.684;23.330;2023-02-26T01:03:17;93759.69;;;14.36;42.38
78459;BME280;67753;42.684;23.330;2023-02-26T01:05:21;93769.88;;;14.75;40.15
78459;BME280;67753;42.684;23.330;2023-02-26T01:07:24;93759.72;;;14.59;40.78
78459;BME280;67753;42.684;23.330;2023-02-26T01:09:29;93751.31;;;14.53;41.24
78459;BME280;67753;42.684;23.330;2023-02-26T01:11:34;93785.69;;;14.46;41.40
78459;BME280;67753;42.684;23.330;2023-02-26T01:13:36;93775.28;;;14.48;40.85
78459;BME280;67753;42.684;23.330;2023-02-26T01:15:38;93756.63;;;14.61;40.98
78459;BME280;67753;42.684;23.330;2023-02-26T01:17:46;93747.72;;;14.64;40.74
78459;BME280;67753;42.684;23.330;2023-02-26T01:19:52;93741.16;;;14.65;40.47
78459;BME280;67753;42.684;23.330;2023-02-26T01:22:02;93747.94;;;14.73;40.41
78459;BME280;67753;42.684;23.330;2023-02-26T01:24:11;93768.81;;;14.69;40.66
78459;BME280;67753;42.684;23.330;2023-02-26T01:26:17;93707.78;;;14.55;39.95
78459;BME280;67753;42.684;23.330;2023-02-26T01:28:21;93723.53;;;14.80;39.09
78459;BME280;67753;42.684;23.330;2023-02-26T01:30:24;93727.44;;;14.55;39.92
78459;BME280;67753;42.684;23.330;2023-02-26T01:32:30;93696.47;;;14.40;40.95
78459;BME280;67753;42.684;23.330;2023-02-26T01:34:46;93706.41;;;14.43;40.50
78459;BME280;67753;42.684;23.330;2023-02-26T01:36:54;93695.38;;;14.34;42.20
78459;BME280;67753;42.684;23.330;2023-02-26T01:39:01;93710.97;;;14.23;43.96
78459;BME280;67753;42.684;23.330;2023-02-26T01:41:20;93697.25;;;14.14;44.14
78459;BME280;67753;42.684;23.330;2023-02-26T01:43:31;93715.06;;;14.07;43.36
78459;BME280;67753;42.684;23.330;2023-02-26T01:45:38;93723.22;;;14.00;43.98
78459;BME280;67753;42.684;23.330;2023-02-26T01:47:49;93703.56;;;14.03;43.66
78459;BME280;67753;42.684;23.330;2023-02-26T01:49:53;93719.78;;;14.00;43.57
78459;BME280;67753;42.684;23.330;2023-02-26T01:51:56;93706.84;;;14.15;43.32
78459;BME280;67753;42.684;23.330;2023-02-26T01:54:01;93699.81;;;13.97;44.19
78459;BME280;67753;42.684;23.330;2023-02-26T01:56:05;93700.72;;;13.87;44.47
78459;BME280;67753;42.684;23.330;2023-02-26T01:58:10;93715.47;;;13.79;44.77
78459;BME280;67753;42.684;23.330;2023-02-26T02:00:13;93675.94;;;13.72;45.78
78459;BME280;67753;42.684;23.330;2023-02-26T02:02:18;93669.50;;;13.66;45.19
78459;BME280;67753;42.684;23.330;2023-02-26T02:04:22;93696.44;;;13.63;45.67
78459;BME280;67753;42.684;23.330;2023-02-26T02:06:25;93695.72;;;13.59;45.42
78459;BME280;67753;42.684;23.330;2023-02-26T02:08:28;93684.88;;;13.66;44.83
78459;BME280;67753;42.684;23.330;2023-02-26T02:10:34;93700.13;;;13.76;43.44
78459;BME280;67753;42.684;23.330;2023-02-26T02:12:39;93677.56;;;13.93;42.57
78459;BME280;67753;42.684;23.330;2023-02-26T02:14:55;93660.94;;;13.98;41.92
78459;BME280;67753;42.684;23.330;2023-02-26T02:17:08;93685.47;;;13.77;42.82
78459;BME280;67753;42.684;23.330;2023-02-26T02:19:32;93705.59;;;13.69;43.55
78459;BME280;67753;42.684;23.330;2023-02-26T02:22:14;93672.94;;;13.67;44.27
78459;BME280;67753;42.684;23.330;2023-02-26T02:24:25;93697.50;;;13.69;43.43
78459;BME280;67753;42.684;23.330;2023-02-26T02:26:44;93693.97;;;13.75;42.92
78459;BME280;67753;42.684;23.330;2023-02-26T02:29:06;93683.91;;;13.79;42.52
78459;BME280;67753;42.684;23.330;2023-02-26T02:31:19;93712.59;;;13.63;43.87
78459;BME280;67753;42.684;23.330;2023-02-26T02:33:27;93662.50;;;13.69;43.56
78459;BME280;67753;42.684;23.330;2023-02-26T02:35:35;93677.25;;;13.61;43.52
78459;BME280;67753;42.684;23.330;2023-02-26T02:37:44;93656.69;;;13.47;44.17
78459;BME280;67753;42.684;23.330;2023-02-26T02:39:51;93674.38;;;13.44;43.79
78459;BME280;67753;42.684;23.330;2023-02-26T02:41:57;93712.47;;;13.43;43.23
78459;BME280;67753;42.684;23.330;2023-02-26T02:44:04;93677.53;;;13.39;43.44
78459;BME280;67753;42.684;23.330;2023-02-26T02:46:10;93711.06;;;13.62;42.99
78459;BME280;67753;42.684;23.330;2023-02-26T02:48:19;93706.50;;;13.59;43.35
78459;BME280;67753;42.684;23.330;2023-02-26T02:50:28;93665.06;;;13.52;43.86
78459;BME280;67753;42.684;23.330;2023-02-26T02:52:34;93710.38;;;13.58;43.28
78459;BME280;67753;42.684;23.330;2023-02-26T02:54:41;93722.06;;;13.44;43.62
78459;BME280;67753;42.684;23.330;2023-02-26T02:56:50;93701.28;;;13.44;43.34
78459;BME280;67753;42.684;23.330;2023-02-26T02:58:59;93699.88;;;13.36;43.52
78459;BME280;67753;42.684;23.330;2023-02-26T03:01:05;93717.63;;;13.30;43.65
78459;BME280;67753;42.684;23.330;2023-02-26T03:03:15;93717.59;;;13.34;43.61
78459;BME280;67753;42.684;23.330;2023-02-26T03:05:21;93693.72;;;13.36;44.40
78459;BME280;67753;42.684;23.330;2023-02-26T03:07:22;93719.59;;;13.57;42.35
78459;BME280;67753;42.684;23.330;2023-02-26T03:09:24;93709.84;;;13.36;42.98
78459;BME280;67753;42.684;23.330;2023-02-26T03:11:26;93718.28;;;13.41;43.13
78459;BME280;67753;42.684;23.330;2023-02-26T03:13:28;93720.69;;;13.32;43.52
78459;BME280;67753;42.684;23.330;2023-02-26T03:15:36;93719.81;;;13.39;43.08
78459;BME280;67753;42.684;23.330;2023-02-26T03:17:47;93698.06;;;13.57;42.47
78459;BME280;67753;42.684;23.330;2023-02-26T03:20:05;93716.06;;;13.33;43.09
78459;BME280;67753;42.684;23.330;2023-02-26T03:22:14;93703.50;;;13.19;43.76
78459;BME280;67753;42.684;23.330;2023-02-26T03:24:21;93708.47;;;13.20;44.11
78459;BME280;67753;42.684;23.330;2023-02-26T03:26:33;93693.22;;;13.10;44.01
78459;BME280;67753;42.684;23.330;2023-02-26T03:28:42;93701.75;;;13.05;44.47
78459;BME280;67753;42.684;23.330;2023-02-26T03:30:49;93694.78;;;13.08;44.78
78459;BME280;67753;42.684;23.330;2023-02-26T03:32:59;93696.84;;;13.30;42.95
78459;BME280;67753;42.684;23.330;2023-02-26T03:35:07;93702.75;;;13.52;41.96
78459;BME280;67753;42.684;23.330;2023-02-26T03:37:19;93721.88;;;13.27;43.28
78459;BME280;67753;42.684;23.330;2023-02-26T03:39:26;93707.69;;;13.27;43.00
78459;BME280;67753;42.684;23.330;2023-02-26T03:41:32;93702.81;;;13.45;42.51
78459;BME280;67753;42.684;23.330;2023-02-26T03:43:38;93710.16;;;13.72;41.29
78459;BME280;67753;42.684;23.330;2023-02-26T03:45:45;93701.03;;;13.66;41.27
78459;BME280;67753;42.684;23.330;2023-02-26T03:47:50;93681.94;;;13.84;40.65
78459;BME280;67753;42.684;23.330;2023-02-26T03:49:56;93676.41;;;14.18;40.03
78459;BME280;67753;42.684;23.330;2023-02-26T03:52:00;93694.44;;;14.21;39.91
78459;BME280;67753;42.684;23.330;2023-02-26T03:54:08;93680.25;;;13.93;40.42
78459;BME280;67753;42.684;23.330;2023-02-26T03:56:15;93693.94;;;13.79;40.85
78459;BME280;67753;42.684;23.330;2023-02-26T03:58:20;93687.84;;;13.75;41.06
78459;BME280;67753;42.684;23.330;2023-02-26T04:00:22;93669.53;;;13.63;42.27
78459;BME280;67753;42.684;23.330;2023-02-26T04:02:30;93686.94;;;13.54;41.92
78459;BME280;67753;42.684;23.330;2023-02-26T04:04:38;93688.34;;;13.93;40.70
78459;BME280;67753;42.684;23.330;2023-02-26T04:06:42;93711.59;;;13.80;40.93
78459;BME280;67753;42.684;23.330;2023-02-26T04:08:46;93677.56;;;13.93;41.20
78459;BME280;67753;42.684;23.330;2023-02-26T04:10:52;93705.25;;;13.94;40.97
78459;BME280;67753;42.684;23.330;2023-02-26T04:12:58;93671.41;;;13.93;40.99
78459;BME280;67753;42.684;23.330;2023-02-26T04:15:01;93692.38;;;13.78;41.14
78459;BME280;67753;42.684;23.330;2023-02-26T04:17:04;93674.91;;;13.63;41.99
78459;BME280;67753;42.684;23.330;2023-02-26T04:19:06;93671.22;;;13.80;40.92
78459;BME280;67753;42.684;23.330;2023-02-26T04:21:10;93668.00;;;13.62;42.27
78459;BME280;67753;42.684;23.330;2023-02-26T04:23:12;93667.13;;;13.68;41.71
78459;BME280;67753;42.684;23.330;2023-02-26T04:25:14;93669.91;;;13.65;41.63
78459;BME280;67753;42.684;23.330;2023-02-26T04:27:17;93658.41;;;13.61;42.27
78459;BME280;67753;42.684;23.330;2023-02-26T04:29:19;93642.84;;;13.45;42.37
78459;BME280;67753;42.684;23.330;2023-02-26T04:31:21;93663.00;;;13.33;42.69
78459;BME280;67753;42.684;23.330;2023-02-26T04:33:23;93652.25;;;13.33;42.97
78459;BME280;67753;42.684;23.330;2023-02-26T04:35:26;93655.81;;;13.53;42.04
78459;BME280;67753;42.684;23.330;2023-02-26T04:37:28;93635.41;;;14.06;39.91
78459;BME280;67753;42.684;23.330;2023-02-26T04:39:30;93652.56;;;13.66;41.34
78459;BME280;67753;42.684;23.330;2023-02-26T04:41:32;93648.91;;;13.52;41.32
78459;BME280;67753;42.684;23.330;2023-02-26T04:43:35;93633.88;;;13.28;43.35
78459;BME280;67753;42.684;23.330;2023-02-26T04:45:37;93625.50;;;13.22;42.93
78459;BME280;67753;42.684;23.330;2023-02-26T04:47:39;93640.91;;;13.15;43.44
78459;BME280;67753;42.684;23.330;2023-02-26T04:49:41;93643.34;;;13.05;43.33
78459;BME280;67753;42.684;23.330;2023-02-26T04:51:44;93642.28;;;13.30;42.65
78459;BME280;67753;42.684;23.330;2023-02-26T04:53:46;93632.25;;;13.34;42.22
78459;BME280;67753;42.684;23.330;2023-02-26T04:55:48;93626.09;;;13.34;42.61
78459;BME280;67753;42.684;23.330;2023-02-26T04:57:50;93633.88;;;13.28;42.79
78459;BME280;67753;42.684;23.330;2023-02-26T04:59:53;93620.88;;;13.23;42.56
78459;BME280;67753;42.684;23.330;2023-02-26T05:01:55;93643.13;;;13.27;42.13
78459;BME280;67753;42.684;23.330;2023-02-26T05:03:57;93631.91;;;13.32;41.81
78459;BME280;67753;42.684;23.330;2023-02-26T05:06:01;93630.63;;;13.40;41.95
78459;BME280;67753;42.684;23.330;2023-02-26T05:08:02;93618.03;;;13.61;40.92
78459;BME280;67753;42.684;23.330;2023-02-26T05:10:06;93615.69;;;13.63;40.06
78459;BME280;67753;42.684;23.330;2023-02-26T05:12:08;93621.53;;;13.58;40.68
78459;BME280;67753;42.684;23.330;2023-02-26T05:14:09;93609.13;;;13.64;40.35
78459;BME280;67753;42.684;23.330;2023-02-26T05:16:13;93626.25;;;13.77;39.57
78459;BME280;67753;42.684;23.330;2023-02-26T05:18:14;93613.16;;;14.02;38.75
78459;BME280;67753;42.684;23.330;2023-02-26T05:20:17;93619.09;;;13.67;40.26
78459;BME280;67753;42.684;23.330;2023-02-26T05:22:19;93626.72;;;13.72;39.65
78459;BME280;67753;42.684;23.330;2023-02-26T05:24:21;93614.94;;;13.62;40.36
78459;BME280;67753;42.684;23.330;2023-02-26T05:26:24;93606.63;;;13.53;40.51
78459;BME280;67753;42.684;23.330;2023-02-26T05:28:26;93593.19;;;13.76;39.46
78459;BME280;67753;42.684;23.330;2023-02-26T05:30:28;93616.72;;;13.96;39.33
78459;BME280;67753;42.684;23.330;2023-02-26T05:32:32;93591.06;;;14.11;38.86
78459;BME280;67753;42.684;23.330;2023-02-26T05:34:34;93576.03;;;13.90;39.85
78459;BME280;67753;42.684;23.330;2023-02-26T05:36:36;93619.22;;;13.83;39.82
78459;BME280;67753;42.684;23.330;2023-02-26T05:38:38;93581.66;;;13.76;40.43
78459;BME280;67753;42.684;23.330;2023-02-26T05:40:40;93620.88;;;13.77;40.47
78459;BME280;67753;42.684;23.330;2023-02-26T05:42:41;93609.88;;;13.91;39.64
78459;BME280;67753;42.684;23.330;2023-02-26T05:44:44;93612.69;;;13.84;40.14
78459;BME280;67753;42.684;23.330;2023-02-26T05:46:46;93612.31;;;13.82;40.25
78459;BME280;67753;42.684;23.330;2023-02-26T05:48:49;93615.59;;;13.70;40.71
78459;BME280;67753;42.684;23.330;2023-02-26T05:50:51;93613.84;;;13.83;40.87
78459;BME280;67753;42.684;23.330;2023-02-26T05:52:53;93650.03;;;14.05;39.07
78459;BME280;67753;42.684;23.330;2023-02-26T05:54:55;93621.69;;;14.21;39.11
78459;BME280;67753;42.684;23.330;2023-02-26T05:56:58;93614.31;;;14.01;40.26
78459;BME280;67753;42.684;23.330;2023-02-26T05:58:59;93615.88;;;14.02;39.97
78459;BME280;67753;42.684;23.330;2023-02-26T06:01:02;93621.19;;;14.06;39.47
78459;BME280;67753;42.684;23.330;2023-02-26T06:03:04;93617.63;;;14.13;39.55
78459;BME280;67753;42.684;23.330;2023-02-26T06:05:10;93625.28;;;14.38;38.43
78459;BME280;67753;42.684;23.330;2023-02-26T06:07:12;93638.31;;;14.39;38.43
78459;BME280;67753;42.684;23.330;2023-02-26T06:09:14;93629.91;;;14.37;39.25
78459;BME280;67753;42.684;23.330;2023-02-26T06:11:15;93650.81;;;14.29;39.35
78459;BME280;67753;42.684;23.330;2023-02-26T06:13:18;93637.50;;;14.42;38.74
78459;BME280;67753;42.684;23.330;2023-02-26T06:15:19;93651.63;;;14.93;37.01
78459;BME280;67753;42.684;23.330;2023-02-26T06:17:21;93639.72;;;14.91;37.22
78459;BME280;67753;42.684;23.330;2023-02-26T06:19:23;93646.25;;;14.93;36.73
78459;BME280;67753;42.684;23.330;2023-02-26T06:21:27;93629.44;;;14.86;37.48
78459;BME280;67753;42.684;23.330;2023-02-26T06:23:28;93656.28;;;15.13;36.47
78459;BME280;67753;42.684;23.330;2023-02-26T06:25:30;93662.97;;;15.04;37.13
78459;BME280;67753;42.684;23.330;2023-02-26T06:27:32;93643.59;;;15.29;36.45
78459;BME280;67753;42.684;23.330;2023-02-26T06:29:35;93624.03;;;15.05;37.31
78459;BME280;67753;42.684;23.330;2023-02-26T06:31:38;93633.94;;;15.12;36.66
78459;BME280;67753;42.684;23.330;2023-02-26T06:33:40;93655.97;;;15.27;36.01
78459;BME280;67753;42.684;23.330;2023-02-26T06:35:42;93654.47;;;15.26;36.38
78459;BME280;67753;42.684;23.330;2023-02-26T06:37:45;93638.97;;;15.30;36.64
78459;BME280;67753;42.684;23.330;2023-02-26T06:39:47;93645.72;;;15.38;36.10
78459;BME280;67753;42.684;23.330;2023-02-26T06:41:49;93610.63;;;15.38;36.26
78459;BME280;67753;42.684;23.330;2023-02-26T06:43:51;93607.25;;;15.34;36.16
78459;BME280;67753;42.684;23.330;2023-02-26T06:45:56;93611.50;;;15.51;35.45
78459;BME280;67753;42.684;23.330;2023-02-26T06:47:58;93619.28;;;15.49;35.52
78459;BME280;67753;42.684;23.330;2023-02-26T06:50:00;93635.19;;;15.64;34.87
78459;BME280;67753;42.684;23.330;2023-02-26T06:52:03;93630.94;;;15.63;35.33
78459;BME280;67753;42.684;23.330;2023-02-26T06:54:07;93643.97;;;15.68;34.99
78459;BME280;67753;42.684;23.330;2023-02-26T06:56:09;93648.19;;;15.69;35.19
78459;BME280;67753;42.684;23.330;2023-02-26T06:58:12;93621.19;;;15.69;36.08
78459;BME280;67753;42.684;23.330;2023-02-26T07:00:15;93629.47;;;15.78;35.04
78459;BME280;67753;42.684;23.330;2023-02-26T07:02:18;93626.84;;;15.74;35.19
78459;BME280;67753;42.684;23.330;2023-02-26T07:04:21;93604.97;;;15.69;36.67
78459;BME280;67753;42.684;23.330;2023-02-26T07:06:24;93606.75;;;15.75;34.98
78459;BME280;67753;42.684;23.330;2023-02-26T07:08:27;93611.06;;;15.73;35.45
78459;BME280;67753;42.684;23.330;2023-02-26T07:10:30;93612.16;;;15.92;34.08
78459;BME280;67753;42.684;23.330;2023-02-26T07:12:33;93608.97;;;15.97;34.22
78459;BME280;67753;42.684;23.330;2023-02-26T07:14:35;93622.72;;;16.02;34.26
78459;BME280;67753;42.684;23.330;2023-02-26T07:16:37;93604.56;;;16.03;34.32
78459;BME280;67753;42.684;23.330;2023-02-26T07:18:39;93614.09;;;16.07;34.11
78459;BME280;67753;42.684;23.330;2023-02-26T07:20:41;93602.38;;;16.14;34.90
78459;BME280;67753;42.684;23.330;2023-02-26T07:22:44;93615.84;;;16.30;34.06
78459;BME280;67753;42.684;23.330;2023-02-26T07:24:46;93629.28;;;16.34;33.34
78459;BME280;67753;42.684;23.330;2023-02-26T07:26:50;93631.47;;;16.39;33.69
78459;BME280;67753;42.684;23.330;2023-02-26T07:28:51;93594.81;;;16.38;33.72
78459;BME280;67753;42.684;23.330;2023-02-26T07:30:53;93630.22;;;16.44;33.09
78459;BME280;67753;42.684;23.330;2023-02-26T07:32:56;93638.22;;;16.47;33.33
78459;BME280;67753;42.684;23.330;2023-02-26T07:34:58;93626.69;;;16.59;33.31
78459;BME280;67753;42.684;23.330;2023-02-26T07:37:01;93603.03;;;16.64;33.62
78459;BME280;67753;42.684;23.330;2023-02-26T07:39:03;93601.09;;;16.64;33.09
78459;BME280;67753;42.684;23.330;2023-02-26T07:41:05;93613.00;;;16.67;33.32
78459;BME280;67753;42.684;23.330;2023-02-26T07:43:09;93583.75;;;16.78;33.99
78459;BME280;67753;42.684;23.330;2023-02-26T07:45:10;93599.78;;;16.85;33.63
78459;BME280;67753;42.684;23.330;2023-02-26T07:47:12;93607.25;;;16.94;33.26
78459;BME280;67753;42.684;23.330;2023-02-26T07:49:15;93618.88;;;16.94;33.41
78459;BME280;67753;42.684;23.330;2023-02-26T07:51:17;93620.25;;;16.86;33.17
78459;BME280;67753;42.684;23.330;2023-02-26T07:53:19;93611.38;;;16.85;32.63
78459;BME280;67753;42.684;23.330;2023-02-26T07:55:21;93635.94;;;16.91;32.68
78459;BME280;67753;42.684;23.330;2023-02-26T07:57:24;93603.75;;;17.09;32.37
78459;BME280;67753;42.684;23.330;2023-02-26T07:59:28;93614.09;;;16.98;32.03
78459;BME280;67753;42.684;23.330;2023-02-26T08:01:30;93627.47;;;17.18;32.38
78459;BME280;67753;42.684;23.330;2023-02-26T08:03:31;93601.47;;;17.21;31.60
78459;BME280;67753;42.684;23.330;2023-02-26T08:05:33;93620.16;;;17.57;31.49
78459;BME280;67753;42.684;23.330;2023-02-26T08:07:37;93613.31;;;17.27;31.55
78459;BME280;67753;42.684;23.330;2023-02-26T08:09:39;93616.16;;;17.61;31.75
78459;BME280;67753;42.684;23.330;2023-02-26T08:11:41;93613.81;;;17.89;32.00
78459;BME280;67753;42.684;23.330;2023-02-26T08:13:45;93637.75;;;17.91;30.93
78459;BME280;67753;42.684;23.330;2023-02-26T08:15:50;93595.47;;;17.93;31.29
78459;BME280;67753;42.684;23.330;2023-02-26T08:17:52;93620.28;;;18.04;30.50
78459;BME280;67753;42.684;23.330;2023-02-26T08:19:54;93579.53;;;17.95;31.20
78459;BME280;67753;42.684;23.330;2023-02-26T08:21:56;93612.91;;;17.92;30.67
78459;BME280;67753;42.684;23.330;2023-02-26T08:23:59;93660.59;;;17.51;31.41
78459;BME280;67753;42.684;23.330;2023-02-26T08:26:01;93630.69;;;17.68;30.67
78459;BME280;67753;42.684;23.330;2023-02-26T08:28:04;93603.63;;;17.93;31.30
78459;BME280;67753;42.684;23.330;2023-02-26T08:30:09;93643.28;;;18.12;30.31
78459;BME280;67753;42.684;23.330;2023-02-26T08:32:16;93629.47;;;18.67;30.35
78459;BME280;67753;42.684;23.330;2023-02-26T08:34:18;93638.88;;;18.88;30.05
78459;BME280;67753;42.684;23.330;2023-02-26T08:36:20;93652.84;;;18.99;30.17
78459;BME280;67753;42.684;23.330;2023-02-26T08:38:22;93674.31;;;19.06;29.73
78459;BME280;67753;42.684;23.330;2023-02-26T08:40:24;93628.31;;;18.90;29.81
78459;BME280;67753;42.684;23.330;2023-02-26T08:42:26;93653.13;;;18.67;29.71
78459;BME280;67753;42.684;23.330;2023-02-26T08:44:28;93663.78;;;18.74;29.58
78459;BME280;67753;42.684;23.330;2023-02-26T08:46:30;93668.84;;;18.84;29.99
78459;BME280;67753;42.684;23.330;2023-02-26T08:48:33;93654.97;;;18.35;29.85
78459;BME280;67753;42.684;23.330;2023-02-26T08:50:35;93666.34;;;18.30;30.40
78459;BME280;67753;42.684;23.330;2023-02-26T08:52:37;93672.13;;;18.19;30.29
78459;BME280;67753;42.684;23.330;2023-02-26T08:54:40;93664.72;;;18.20;30.38
78459;BME280;67753;42.684;23.330;2023-02-26T08:56:42;93648.91;;;18.31;30.73
78459;BME280;67753;42.684;23.330;2023-02-26T08:58:44;93635.53;;;18.36;29.73
78459;BME280;67753;42.684;23.330;2023-02-26T09:00:46;93694.41;;;18.61;30.26
78459;BME280;67753;42.684;23.330;2023-02-26T09:02:48;93657.28;;;19.06;30.24
78459;BME280;67753;42.684;23.330;2023-02-26T09:04:51;93657.13;;;19.53;29.49
78459;BME280;67753;42.684;23.330;2023-02-26T09:06:53;93647.38;;;19.43;29.22
78459;BME280;67753;42.684;23.330;2023-02-26T09:08:55;93676.28;;;19.50;29.17
78459;BME280;67753;42.684;23.330;2023-02-26T09:10:58;93668.72;;;19.76;29.20
78459;BME280;67753;42.684;23.330;2023-02-26T09:13:01;93674.31;;;19.72;28.78
78459;BME280;67753;42.684;23.330;2023-02-26T09:15:04;93684.25;;;19.97;28.84
78459;BME280;67753;42.684;23.330;2023-02-26T09:17:06;93674.34;;;20.12;28.83
78459;BME280;67753;42.684;23.330;2023-02-26T09:19:08;93687.31;;;20.49;28.02
78459;BME280;67753;42.684;23.330;2023-02-26T09:21:11;93689.53;;;20.41;28.15
78459;BME280;67753;42.684;23.330;2023-02-26T09:23:14;93693.28;;;20.84;26.94
78459;BME280;67753;42.684;23.330;2023-02-26T09:25:15;93671.69;;;20.99;27.57
78459;BME280;67753;42.684;23.330;2023-02-26T09:27:17;93670.47;;;21.27;26.95
78459;BME280;67753;42.684;23.330;2023-02-26T09:29:19;93674.22;;;21.11;26.65
78459;BME280;67753;42.684;23.330;2023-02-26T09:31:22;93657.88;;;21.39;27.31
78459;BME280;67753;42.684;23.330;2023-02-26T09:33:24;93658.59;;;21.67;26.42
78459;BME280;67753;42.684;23.330;2023-02-26T09:35:26;93666.84;;;21.91;26.28
78459;BME280;67753;42.684;23.330;2023-02-26T09:37:29;93674.19;;;21.76;27.13
78459;BME280;67753;42.684;23.330;2023-02-26T09:39:32;93678.28;;;21.62;26.80
78459;BME280;67753;42.684;23.330;2023-02-26T09:41:39;93674.09;;;21.24;27.03
78459;BME280;67753;42.684;23.330;2023-02-26T09:43:52;93664.22;;;21.45;27.33
78459;BME280;67753;42.684;23.330;2023-02-26T09:46:01;93666.81;;;21.12;27.30
78459;BME280;67753;42.684;23.330;2023-02-26T09:48:05;93674.53;;;21.13;27.64
78459;BME280;67753;42.684;23.330;2023-02-26T09:50:15;93650.94;;;21.10;27.24
78459;BME280;67753;42.684;23.330;2023-02-26T09:52:25;93656.97;;;21.14;27.49
78459;BME280;67753;42.684;23.330;2023-02-26T09:54:34;93706.91;;;20.93;26.26
78459;BME280;67753;42.684;23.330;2023-02-26T09:56:37;93677.13;;;20.40;26.45
78459;BME280;67753;42.684;23.330;2023-02-26T09:58:40;93706.22;;;22.51;24.60
78459;BME280;67753;42.684;23.330;2023-02-26T10:00:47;93682.31;;;23.86;24.31
78459;BME280;67753;42.684;23.330;2023-02-26T10:02:59;93671.97;;;23.51;24.03
78459;BME280;67753;42.684;23.330;2023-02-26T10:05:16;93700.31;;;23.92;23.35
78459;BME280;67753;42.684;23.330;2023-02-26T10:07:26;93684.84;;;22.73;24.66
78459;BME280;67753;42.684;23.330;2023-02-26T10:09:43;93624.75;;;20.85;26.94
78459;BME280;67753;42.684;23.330;2023-02-26T10:11:53;93656.03;;;21.54;26.32
78459;BME280;67753;42.684;23.330;2023-02-26T10:14:01;93670.63;;;21.42;26.11
78459;BME280;67753;42.684;23.330;2023-02-26T10:16:07;93656.66;;;21.40;26.68
78459;BME280;67753;42.684;23.330;2023-02-26T10:18:12;93655.75;;;21.25;27.53
78459;BME280;67753;42.684;23.330;2023-02-26T10:20:18;93679.69;;;21.48;26.94
78459;BME280;67753;42.684;23.330;2023-02-26T10:22:25;93652.16;;;21.09;26.99
78459;BME280;67753;42.684;23.330;2023-02-26T10:24:34;93649.41;;;21.09;27.26
78459;BME280;67753;42.684;23.330;2023-02-26T10:26:44;93640.91;;;20.52;27.22
78459;BME280;67753;42.684;23.330;2023-02-26T10:28:53;93656.44;;;19.93;27.11
78459;BME280;67753;42.684;23.330;2023-02-26T10:31:06;93658.44;;;20.60;27.65
78459;BME280;67753;42.684;23.330;2023-02-26T10:33:17;93656.22;;;19.56;28.35
78459;BME280;67753;42.684;23.330;2023-02-26T10:35:22;93639.84;;;20.00;27.59
78459;BME280;67753;42.684;23.330;2023-02-26T10:37:36;93642.31;;;20.16;27.21
78459;BME280;67753;42.684;23.330;2023-02-26T10:39:45;93630.50;;;20.10;28.29
78459;BME280;67753;42.684;23.330;2023-02-26T10:41:50;93616.28;;;20.06;28.18
78459;BME280;67753;42.684;23.330;2023-02-26T10:43:59;93603.97;;;20.24;28.14
78459;BME280;67753;42.684;23.330;2023-02-26T10:46:14;93598.97;;;19.51;28.36
78459;BME280;67753;42.684;23.330;2023-02-26T10:48:41;93595.13;;;19.30;29.29
78459;BME280;67753;42.684;23.330;2023-02-26T10:50:49;93601.94;;;19.34;28.98
78459;BME280;67753;42.684;23.330;2023-02-26T10:52:53;93598.13;;;19.32;28.58